Longtown, United Kingdom
Current Conditions -  °F | °C
As of 6:20 PM on Tuesday 27 Jan 2015 (Local Time) from EGBJ Reporting Station
Scattered Clouds Scattered Clouds  
Wind Chill: 41°   Ceiling: Unl
Heat Index: 45°   Visibility: 6mi
Dew Point: 37°   Wind: 6mph
Humidity: 76%   Direction: 230°SW
Pressure: 30.24"   Gusts: NA
Location:  51.95°N, 2.98°W
Report Text: EGBJ 271820Z 23005KT 200V260 9999 SCT030 07/03 Q1024
Loading
Personal Weather Stations






























Interactive Weather Map New forecast layout! Learn more

10-Day Weather Forecast

Advertisements
Track Severe Weather on mobile